Time;durP1;ratioP1;P1;durP2;ratioP2;P2;SDS_P1;SDS_P2;PMS_P1;PMS_P2;Temp;Humidity;BMP_temperature;BMP_pressure;BME280_temperature;BME280_humidity;BME280_pressure;Samples;Min_cycle;Max_cycle;Signal;HPM_P1;HPM_P2
2022/03/11 00:01:18;;;;;;;73.20;25.20;;;;;;;-4.76;55.05;100414.60;107704;1282;22599;-72
2022/03/11 00:03:45;;;;;;;70.20;26.10;;;;;;;-4.78;55.02;100417.28;107689;1282;22718;-73
2022/03/11 00:06:12;;;;;;;57.50;22.80;;;;;;;-4.78;55.03;100414.36;107665;1282;22692;-73
2022/03/11 00:08:39;;;;;;;58.10;23.30;;;;;;;-4.80;55.04;100415.66;107709;1281;22551;-73
2022/03/11 00:11:06;;;;;;;54.00;21.60;;;;;;;-4.81;54.99;100412.77;107695;1282;22540;-72
2022/03/11 00:13:35;;;;;;;52.60;21.60;;;;;;;-4.83;55.06;100416.46;107730;1282;22554;-72
2022/03/11 00:16:02;;;;;;;51.40;19.70;;;;;;;-4.84;54.99;100411.50;107687;1282;22559;-73
2022/03/11 00:18:29;;;;;;;46.00;17.80;;;;;;;-4.85;55.00;100408.42;107699;1282;22630;-73
2022/03/11 00:20:56;;;;;;;42.00;16.00;;;;;;;-4.86;54.91;100403.30;107686;1282;22714;-73
2022/03/11 00:23:23;;;;;;;34.90;15.80;;;;;;;-4.87;55.04;100401.40;107492;1282;22695;-73
2022/03/11 00:25:50;;;;;;;37.30;14.80;;;;;;;-4.90;54.93;100396.58;107705;1281;22717;-74
2022/03/11 00:28:17;;;;;;;34.20;14.80;;;;;;;-4.92;54.77;100398.56;107710;1282;24273;-73
2022/03/11 00:30:44;;;;;;;42.20;16.90;;;;;;;-4.93;54.82;100401.44;107691;1282;22550;-73
2022/03/11 00:33:11;;;;;;;39.90;15.40;;;;;;;-4.96;55.01;100402.73;107667;1282;22566;-72
2022/03/11 00:35:38;;;;;;;35.10;15.80;;;;;;;-4.97;54.99;100392.84;107705;1282;22646;-73
2022/03/11 00:38:05;;;;;;;38.00;15.50;;;;;;;-4.98;54.96;100391.95;107695;1282;22534;-73
2022/03/11 00:40:33;;;;;;;38.70;16.10;;;;;;;-4.99;54.91;100387.52;107690;1282;22653;-73
2022/03/11 00:43:00;;;;;;;43.00;16.70;;;;;;;-5.00;54.96;100388.34;107743;1282;22719;-73
2022/03/11 00:45:27;;;;;;;49.00;21.00;;;;;;;-5.01;54.96;100386.10;108238;1281;22635;-73
2022/03/11 00:47:54;;;;;;;42.80;17.70;;;;;;;-5.02;54.92;100384.90;107726;1282;22561;-73
2022/03/11 00:50:22;;;;;;;47.80;19.20;;;;;;;-5.04;55.11;100381.45;107696;1282;22663;-73
2022/03/11 00:52:50;;;;;;;43.30;18.30;;;;;;;-5.04;55.15;100385.01;107703;1282;22553;-81
2022/03/11 00:55:17;;;;;;;45.40;18.90;;;;;;;-5.07;55.07;100385.26;107708;1282;24313;-73
2022/03/11 00:57:44;;;;;;;42.40;16.80;;;;;;;-5.10;54.97;100388.09;107692;1282;22582;-71
2022/03/11 01:00:12;;;;;;;44.10;17.90;;;;;;;-5.14;55.37;100387.14;107707;1282;22673;-71
2022/03/11 01:02:39;;;;;;;41.70;15.90;;;;;;;-5.19;55.44;100385.14;107754;1282;22585;-72
2022/03/11 01:05:07;;;;;;;67.60;23.00;;;;;;;-5.22;55.60;100389.98;107751;1282;22630;-73
2022/03/11 01:07:34;;;;;;;80.90;29.70;;;;;;;-5.27;55.82;100390.36;107672;1282;22590;-74
2022/03/11 01:10:02;;;;;;;68.30;25.00;;;;;;;-5.31;55.55;100389.27;107692;1282;23677;-72
2022/03/11 01:12:29;;;;;;;69.30;23.90;;;;;;;-5.33;56.05;100386.64;107955;1282;22613;-72
2022/03/11 01:14:56;;;;;;;78.00;27.40;;;;;;;-5.36;56.02;100386.03;107732;1282;22545;-72
2022/03/11 01:17:23;;;;;;;78.80;27.10;;;;;;;-5.38;56.01;100382.77;107752;1282;23171;-73
2022/03/11 01:19:50;;;;;;;65.40;23.60;;;;;;;-5.40;56.01;100380.52;107710;1282;24114;-73
2022/03/11 01:22:17;;;;;;;59.30;23.90;;;;;;;-5.40;55.65;100380.67;107687;1282;22623;-73
2022/03/11 01:24:44;;;;;;;66.70;24.80;;;;;;;-5.41;55.95;100378.27;107710;1282;24419;-72
2022/03/11 01:27:11;;;;;;;69.00;25.70;;;;;;;-5.42;56.04;100375.35;107697;1282;23277;-73
2022/03/11 01:29:38;;;;;;;74.30;28.80;;;;;;;-5.45;55.77;100377.30;107679;1282;22570;-73
2022/03/11 01:32:06;;;;;;;70.40;25.10;;;;;;;-5.47;55.77;100370.30;107696;1282;22552;-72
2022/03/11 01:34:33;;;;;;;76.20;29.10;;;;;;;-5.48;55.88;100372.15;107683;1282;26865;-72
2022/03/11 01:37:00;;;;;;;60.90;23.40;;;;;;;-5.49;56.00;100371.60;107719;1282;22615;-72
2022/03/11 01:39:26;;;;;;;55.00;21.70;;;;;;;-5.53;55.85;100370.30;107745;1282;22636;-73
2022/03/11 01:41:54;;;;;;;49.90;19.60;;;;;;;-5.56;55.94;100368.54;107706;1282;25258;-76
2022/03/11 01:44:25;;;;;;;41.30;17.20;;;;;;;-5.58;55.74;100366.45;107184;1282;695040;-75
2022/03/11 01:46:53;;;;;;;38.30;16.50;;;;;;;-5.60;55.81;100370.95;107911;1282;22554;-73
2022/03/11 01:49:21;;;;;;;36.50;13.80;;;;;;;-5.62;55.81;100367.16;107986;1282;22545;-72
2022/03/11 01:51:49;;;;;;;41.50;16.10;;;;;;;-5.64;55.79;100367.13;108009;1282;22626;-74
2022/03/11 01:54:16;;;;;;;44.40;14.30;;;;;;;-5.66;55.72;100369.62;108009;1282;25553;-77
2022/03/11 01:56:43;;;;;;;34.60;14.40;;;;;;;-5.70;55.77;100365.77;107930;1282;25328;-73
2022/03/11 01:59:11;;;;;;;32.30;13.70;;;;;;;-5.72;55.81;100368.09;107702;1282;22669;-75
2022/03/11 02:01:39;;;;;;;33.20;13.30;;;;;;;-5.72;55.89;100367.75;107774;1282;22559;-74
2022/03/11 02:04:06;;;;;;;30.90;13.60;;;;;;;-5.73;55.72;100367.91;107688;1282;22566;-75
2022/03/11 02:06:33;;;;;;;45.70;18.00;;;;;;;-5.73;55.34;100371.98;107678;1282;22550;-75
2022/03/11 02:09:02;;;;;;;35.60;14.90;;;;;;;-5.73;55.70;100369.77;107692;1282;23135;-73
2022/03/11 02:11:29;;;;;;;36.80;16.70;;;;;;;-5.74;55.75;100371.78;107689;1282;25415;-73
2022/03/11 02:13:59;;;;;;;42.10;17.20;;;;;;;-5.76;55.49;100373.25;107710;1282;24338;-73
2022/03/11 02:16:31;;;;;;;37.50;14.10;;;;;;;-5.79;55.65;100374.53;107681;1282;22575;-74
2022/03/11 02:18:59;;;;;;;34.30;16.80;;;;;;;-5.77;55.94;100369.65;107672;1282;22704;-73
2022/03/11 02:21:27;;;;;;;27.00;12.30;;;;;;;-5.75;57.08;100376.20;107694;1282;22547;-73
2022/03/11 02:23:56;;;;;;;26.90;12.10;;;;;;;-5.73;58.08;100374.52;107737;1282;24462;-75
2022/03/11 02:26:25;;;;;;;27.70;12.80;;;;;;;-5.70;58.70;100370.20;107681;1282;22649;-75
2022/03/11 02:28:54;;;;;;;26.70;11.80;;;;;;;-5.66;59.02;100367.41;107652;1282;22551;-76
2022/03/11 02:31:28;;;;;;;22.70;9.70;;;;;;;-5.63;59.10;100365.45;107679;1282;22598;-74
2022/03/11 02:33:56;;;;;;;25.40;10.60;;;;;;;-5.63;59.11;100362.73;107660;1282;25415;-75
2022/03/11 02:36:23;;;;;;;25.50;10.60;;;;;;;-5.64;59.05;100368.15;107699;1282;22791;-74
2022/03/11 02:38:51;;;;;;;25.70;10.80;;;;;;;-5.64;59.13;100366.45;107723;1282;22570;-74
2022/03/11 02:41:18;;;;;;;28.50;11.10;;;;;;;-5.65;59.06;100366.25;107703;1282;22610;-74
2022/03/11 02:43:45;;;;;;;28.90;12.40;;;;;;;-5.67;58.24;100365.20;107713;1282;24242;-74
2022/03/11 02:46:16;;;;;;;36.30;14.10;;;;;;;-5.68;57.43;100365.83;107725;1282;23050;-76
2022/03/11 02:48:43;;;;;;;29.10;12.80;;;;;;;-5.71;57.07;100365.58;107696;1282;22563;-73
2022/03/11 02:51:10;;;;;;;33.40;11.80;;;;;;;-5.76;56.62;100362.38;107672;1282;22561;-74
2022/03/11 02:53:40;;;;;;;27.80;11.00;;;;;;;-5.80;56.52;100366.34;107684;1282;25379;-74
2022/03/11 02:56:09;;;;;;;31.80;12.50;;;;;;;-5.85;56.25;100369.44;107642;1282;22661;-74
2022/03/11 02:58:38;;;;;;;19.00;8.80;;;;;;;-5.87;56.13;100367.85;107674;1282;22701;-78
2022/03/11 03:01:05;;;;;;;28.90;10.60;;;;;;;-5.92;56.11;100369.27;107702;1282;22513;-74
2022/03/11 03:03:32;;;;;;;28.20;12.40;;;;;;;-5.94;56.00;100370.08;107701;1282;22543;-73
2022/03/11 03:05:59;;;;;;;28.30;10.90;;;;;;;-5.98;55.97;100369.94;107707;1282;22673;-73
2022/03/11 03:08:26;;;;;;;25.20;9.90;;;;;;;-6.01;55.87;100369.19;107700;1282;22701;-74
2022/03/11 03:10:53;;;;;;;27.80;11.20;;;;;;;-6.04;55.87;100372.30;107701;1282;25270;-74
2022/03/11 03:13:20;;;;;;;23.70;10.30;;;;;;;-6.08;55.91;100370.48;107725;1282;23355;-73
2022/03/11 03:15:48;;;;;;;23.30;9.80;;;;;;;-6.10;55.82;100368.61;107690;1282;23387;-74
2022/03/11 03:18:15;;;;;;;34.10;13.80;;;;;;;-6.10;55.90;100371.31;107695;1282;25989;-74
2022/03/11 03:20:43;;;;;;;27.80;12.10;;;;;;;-6.08;56.29;100367.95;107708;1282;22700;-74
2022/03/11 03:23:10;;;;;;;31.20;12.80;;;;;;;-6.05;56.63;100367.38;107719;1283;22695;-74
2022/03/11 03:25:37;;;;;;;30.50;12.00;;;;;;;-6.00;57.25;100368.52;107760;1282;22591;-74
2022/03/11 03:28:04;;;;;;;28.20;12.40;;;;;;;-6.01;57.44;100367.16;107702;1284;22978;-74
2022/03/11 03:30:31;;;;;;;27.20;11.60;;;;;;;-5.98;57.82;100367.23;107697;1282;22590;-75
2022/03/11 03:32:58;;;;;;;20.20;9.20;;;;;;;-5.97;58.11;100363.35;107651;1283;22596;-74
2022/03/11 03:35:25;;;;;;;24.20;9.90;;;;;;;-5.96;58.40;100362.35;107720;1284;22649;-74
2022/03/11 03:37:52;;;;;;;31.60;12.10;;;;;;;-5.97;58.27;100358.77;107699;1282;25352;-75
2022/03/11 03:40:19;;;;;;;29.70;11.70;;;;;;;-5.96;58.35;100356.91;107715;1284;22624;-78
2022/03/11 03:42:47;;;;;;;27.50;10.60;;;;;;;-5.98;58.21;100354.84;107714;1284;25561;-74
2022/03/11 03:45:15;;;;;;;37.40;13.70;;;;;;;-5.98;58.13;100355.00;107698;1284;23355;-74
2022/03/11 03:47:42;;;;;;;25.00;10.40;;;;;;;-6.01;57.70;100353.76;107721;1282;22961;-77
2022/03/11 03:50:10;;;;;;;28.60;11.60;;;;;;;-6.05;57.32;100352.77;107702;1284;22682;-75
2022/03/11 03:52:37;;;;;;;31.50;13.60;;;;;;;-6.10;57.04;100354.84;107750;1282;22601;-74
2022/03/11 03:55:06;;;;;;;27.00;11.10;;;;;;;-6.15;56.91;100351.98;107702;1284;22541;-72
2022/03/11 03:57:33;;;;;;;29.20;12.50;;;;;;;-6.18;56.57;100351.55;107965;1283;22714;-73
2022/03/11 04:00:00;;;;;;;28.40;12.60;;;;;;;-6.19;56.44;100353.59;107702;1283;22560;-81
2022/03/11 04:02:27;;;;;;;26.20;10.70;;;;;;;-6.24;56.50;100351.89;107669;1284;24483;-72
2022/03/11 04:04:54;;;;;;;26.50;11.80;;;;;;;-6.27;56.73;100354.17;107694;1283;22714;-73
2022/03/11 04:07:21;;;;;;;29.40;12.20;;;;;;;-6.31;56.45;100355.23;107724;1284;22564;-73
2022/03/11 04:09:48;;;;;;;28.20;12.20;;;;;;;-6.35;56.64;100359.18;107655;1284;25408;-72
2022/03/11 04:12:15;;;;;;;23.50;10.50;;;;;;;-6.40;56.76;100360.04;107733;1282;22628;-74
2022/03/11 04:14:42;;;;;;;24.40;9.60;;;;;;;-6.44;56.53;100358.41;107679;1284;22577;-73
2022/03/11 04:17:10;;;;;;;30.10;10.80;;;;;;;-6.46;56.61;100361.27;107680;1284;24451;-73
2022/03/11 04:19:37;;;;;;;25.20;11.30;;;;;;;-6.43;56.76;100358.25;107696;1283;22659;-73
2022/03/11 04:22:04;;;;;;;29.80;12.40;;;;;;;-6.41;57.35;100359.52;107694;1282;25707;-73
2022/03/11 04:24:31;;;;;;;29.00;12.10;;;;;;;-6.36;57.99;100358.64;107698;1282;22544;-73
2022/03/11 04:26:58;;;;;;;28.70;10.80;;;;;;;-6.33;58.40;100362.81;107755;1283;22551;-73
2022/03/11 04:29:26;;;;;;;35.40;17.30;;;;;;;-6.30;58.39;100366.83;107702;1284;22628;-72
2022/03/11 04:31:54;;;;;;;32.10;13.60;;;;;;;-6.28;58.76;100364.50;107690;1282;23702;-72
2022/03/11 04:34:22;;;;;;;35.40;14.20;;;;;;;-6.26;59.01;100363.87;107672;1284;22551;-73
2022/03/11 04:36:49;;;;;;;31.10;12.90;;;;;;;-6.24;59.00;100363.74;107711;1284;22725;-73
2022/03/11 04:39:17;;;;;;;44.10;20.00;;;;;;;-6.23;58.93;100364.13;107572;1284;22540;-75
2022/03/11 04:41:44;;;;;;;42.10;16.90;;;;;;;-6.24;59.07;100366.80;108007;1282;22741;-72
2022/03/11 04:44:12;;;;;;;41.90;19.60;;;;;;;-6.25;58.72;100370.67;107735;1284;23076;-74
2022/03/11 04:46:39;;;;;;;49.20;22.50;;;;;;;-6.28;58.07;100374.66;107698;1284;22692;-73
2022/03/11 04:49:06;;;;;;;69.90;27.30;;;;;;;-6.32;57.73;100378.27;107730;1284;22588;-76
2022/03/11 04:51:33;;;;;;;53.50;21.80;;;;;;;-6.34;57.62;100382.61;107768;1284;22554;-73
2022/03/11 04:54:00;;;;;;;44.90;22.90;;;;;;;-6.39;57.30;100382.48;107721;1283;22565;-72
2022/03/11 04:56:27;;;;;;;44.60;20.50;;;;;;;-6.41;57.18;100382.40;107699;1282;25428;-74
2022/03/11 04:58:54;;;;;;;37.10;17.10;;;;;;;-6.47;57.28;100377.50;107727;1284;22546;-73
2022/03/11 05:01:21;;;;;;;31.20;13.90;;;;;;;-6.49;57.49;100377.41;107700;1282;22607;-73
2022/03/11 05:03:48;;;;;;;27.00;13.00;;;;;;;-6.54;57.21;100375.58;107712;1284;22620;-73
2022/03/11 05:06:15;;;;;;;76.70;30.50;;;;;;;-6.57;57.56;100372.45;107712;1284;22560;-73
2022/03/11 05:08:43;;;;;;;57.50;23.50;;;;;;;-6.58;57.42;100371.02;107801;1284;22704;-73
2022/03/11 05:11:10;;;;;;;42.60;18.00;;;;;;;-6.58;57.37;100374.27;107775;1284;22697;-72
2022/03/11 05:13:37;;;;;;;29.20;12.60;;;;;;;-6.54;57.61;100370.15;107790;1283;22627;-73
2022/03/11 05:16:04;;;;;;;52.30;20.30;;;;;;;-6.50;58.11;100372.80;107744;1284;22538;-72
2022/03/11 05:18:31;;;;;;;131.70;52.90;;;;;;;-6.50;58.43;100372.33;107743;1283;23505;-73
2022/03/11 05:20:59;;;;;;;56.50;21.90;;;;;;;-6.47;58.99;100371.91;107711;1282;22558;-75
2022/03/11 05:23:26;;;;;;;54.90;23.20;;;;;;;-6.44;59.17;100370.45;107737;1283;24250;-73
2022/03/11 05:25:53;;;;;;;86.30;32.00;;;;;;;-6.42;59.39;100368.29;107791;1282;22587;-73
2022/03/11 05:28:21;;;;;;;123.90;42.10;;;;;;;-6.39;59.39;100368.91;108096;1282;22561;-74
2022/03/11 05:30:48;;;;;;;100.10;40.20;;;;;;;-6.34;59.48;100368.52;107739;1283;22709;-77
2022/03/11 05:33:15;;;;;;;83.70;34.10;;;;;;;-6.29;59.17;100367.17;107729;1282;22629;-74
2022/03/11 05:35:42;;;;;;;45.70;18.50;;;;;;;-6.24;59.50;100363.24;107758;1282;22576;-73
2022/03/11 05:38:09;;;;;;;38.40;14.30;;;;;;;-6.18;59.30;100359.38;107737;1283;25516;-73
2022/03/11 05:40:36;;;;;;;60.50;28.00;;;;;;;-6.10;59.26;100361.48;107745;1282;22565;-74
2022/03/11 05:43:03;;;;;;;52.80;19.10;;;;;;;-5.98;58.83;100361.79;107720;1282;22656;-76
2022/03/11 05:45:31;;;;;;;57.70;20.60;;;;;;;-5.93;58.83;100362.46;107735;1282;22713;-73
2022/03/11 05:47:58;;;;;;;45.50;16.90;;;;;;;-5.84;58.81;100367.61;107728;1283;22621;-74
2022/03/11 05:50:25;;;;;;;44.60;16.70;;;;;;;-5.70;58.70;100373.43;107736;1282;24371;-73
2022/03/11 05:52:52;;;;;;;54.10;20.20;;;;;;;-5.57;59.00;100375.45;107771;1282;22554;-74
2022/03/11 05:55:19;;;;;;;49.90;21.20;;;;;;;-5.40;59.09;100376.60;107764;1282;22626;-73
2022/03/11 05:57:46;;;;;;;50.90;19.80;;;;;;;-5.22;59.00;100379.11;107672;1282;23005;-74
2022/03/11 06:00:14;;;;;;;47.30;20.60;;;;;;;-5.05;58.67;100378.68;107758;1282;22557;-80
2022/03/11 06:02:41;;;;;;;72.50;27.10;;;;;;;-4.90;58.67;100379.41;107770;1282;22572;-74
2022/03/11 06:05:10;;;;;;;79.20;30.90;;;;;;;-4.69;58.55;100381.96;107729;1282;22589;-74
2022/03/11 06:07:38;;;;;;;69.90;28.00;;;;;;;-4.51;58.07;100385.77;107709;1282;23039;-74
2022/03/11 06:10:06;;;;;;;67.60;24.60;;;;;;;-4.36;57.25;100386.61;107717;1282;22577;-74
2022/03/11 06:12:34;;;;;;;78.90;27.80;;;;;;;-4.21;56.44;100389.70;107754;1282;23027;-74
2022/03/11 06:15:11;;;;;;;105.90;42.40;;;;;;;-4.12;56.41;100392.42;107736;1282;22594;-75
2022/03/11 06:17:38;;;;;;;65.10;25.80;;;;;;;-3.91;55.48;100397.83;107799;1282;22683;-74
2022/03/11 06:20:08;;;;;;;70.80;31.30;;;;;;;-3.86;54.23;100398.44;107732;1282;25287;-76
2022/03/11 06:22:36;;;;;;;56.80;24.50;;;;;;;-3.81;53.76;100400.58;107852;1282;22688;-74
2022/03/11 06:25:04;;;;;;;67.10;25.70;;;;;;;-3.82;53.48;100401.24;107980;1282;22544;-74
2022/03/11 06:27:31;;;;;;;83.60;30.40;;;;;;;-3.84;52.81;100399.67;107638;1284;22556;-75
2022/03/11 06:29:58;;;;;;;80.00;29.50;;;;;;;-3.92;52.98;100398.31;107771;1282;22623;-74
2022/03/11 06:32:25;;;;;;;40.40;16.40;;;;;;;-3.92;52.47;100394.55;107735;1282;22545;-80
2022/03/11 06:34:54;;;;;;;62.60;24.70;;;;;;;-3.99;51.78;100394.92;107723;1282;22559;-74
2022/03/11 06:37:21;;;;;;;56.50;22.80;;;;;;;-4.09;52.23;100394.70;107732;1282;22603;-79
2022/03/11 06:39:48;;;;;;;52.30;21.60;;;;;;;-4.11;52.41;100396.70;107737;1282;22635;-75
2022/03/11 06:42:15;;;;;;;45.00;16.20;;;;;;;-4.10;52.46;100402.34;107767;1282;22581;-74
2022/03/11 06:44:42;;;;;;;43.40;15.90;;;;;;;-4.07;52.23;100401.39;107752;1282;22555;-74
2022/03/11 06:47:09;;;;;;;38.40;15.20;;;;;;;-4.06;51.80;100400.39;107756;1282;23164;-78
2022/03/11 06:49:36;;;;;;;43.10;17.90;;;;;;;-4.05;51.92;100401.60;107808;1282;22566;-74
2022/03/11 06:52:03;;;;;;;37.70;15.00;;;;;;;-4.04;51.87;100397.72;107767;1282;22547;-74
2022/03/11 06:54:30;;;;;;;39.50;15.40;;;;;;;-3.99;51.29;100400.70;107762;1282;22534;-74
2022/03/11 06:56:57;;;;;;;31.30;13.70;;;;;;;-3.97;51.25;100399.41;107745;1282;22579;-73
2022/03/11 06:59:24;;;;;;;34.70;17.40;;;;;;;-3.92;51.19;100403.58;107794;1282;25329;-73
2022/03/11 07:01:51;;;;;;;33.00;14.30;;;;;;;-3.89;51.05;100407.74;107754;1282;22565;-73
2022/03/11 07:04:18;;;;;;;31.60;13.50;;;;;;;-3.83;50.77;100408.53;107756;1282;22586;-74
2022/03/11 07:06:45;;;;;;;28.50;12.90;;;;;;;-3.77;50.78;100411.05;107727;1282;22554;-72
2022/03/11 07:09:13;;;;;;;32.20;14.30;;;;;;;-3.71;50.21;100413.20;107732;1282;22729;-74
2022/03/11 07:11:40;;;;;;;33.10;15.20;;;;;;;-3.65;50.34;100413.67;107741;1282;22560;-71
2022/03/11 07:14:07;;;;;;;28.40;11.80;;;;;;;-3.55;49.27;100413.20;107717;1282;23085;-71
2022/03/11 07:16:34;;;;;;;22.50;9.60;;;;;;;-3.54;47.66;100415.41;107709;1282;22718;-72
2022/03/11 07:19:01;;;;;;;18.10;9.30;;;;;;;-3.58;47.67;100414.32;107764;1282;22569;-72
2022/03/11 07:21:28;;;;;;;17.10;7.60;;;;;;;-3.57;48.21;100421.65;107717;1282;22638;-73
2022/03/11 07:23:56;;;;;;;20.80;9.50;;;;;;;-3.54;47.99;100423.08;107769;1282;24177;-73
2022/03/11 07:26:23;;;;;;;23.90;10.40;;;;;;;-3.47;48.15;100425.09;107751;1282;22584;-74
2022/03/11 07:28:50;;;;;;;16.20;7.70;;;;;;;-3.39;47.79;100424.92;107743;1282;22565;-75
2022/03/11 07:31:17;;;;;;;25.40;11.60;;;;;;;-3.33;47.21;100424.52;107748;1282;22568;-73
2022/03/11 07:33:44;;;;;;;19.50;8.10;;;;;;;-3.29;47.12;100422.88;107695;1282;24235;-73
2022/03/11 07:36:11;;;;;;;17.80;9.30;;;;;;;-3.25;47.10;100420.24;107674;1282;22548;-78
2022/03/11 07:38:38;;;;;;;19.20;9.00;;;;;;;-3.22;46.71;100426.27;107671;1282;22547;-73
2022/03/11 07:41:07;;;;;;;17.00;7.90;;;;;;;-3.20;46.32;100426.98;107701;1282;22547;-73
2022/03/11 07:43:35;;;;;;;22.50;8.40;;;;;;;-3.15;46.32;100428.79;107761;1282;25546;-75
2022/03/11 07:46:02;;;;;;;21.90;8.30;;;;;;;-3.09;46.17;100428.55;107701;1282;22543;-71
2022/03/11 07:48:29;;;;;;;18.00;8.40;;;;;;;-3.06;46.01;100427.76;107707;1282;22731;-71
2022/03/11 07:50:56;;;;;;;26.30;10.40;;;;;;;-3.01;46.12;100429.38;107721;1282;22573;-72
2022/03/11 07:53:24;;;;;;;30.00;13.90;;;;;;;-2.92;45.55;100431.90;107724;1282;25434;-74
2022/03/11 07:55:51;;;;;;;21.40;10.50;;;;;;;-2.88;45.04;100430.13;107730;1282;22565;-75
2022/03/11 07:58:21;;;;;;;21.90;8.80;;;;;;;-2.86;45.35;100428.10;107720;1282;22558;-83
2022/03/11 08:00:48;;;;;;;18.50;7.50;;;;;;;-2.81;45.11;100429.89;107672;1282;22553;-76
2022/03/11 08:03:16;;;;;;;19.20;9.30;;;;;;;-2.77;44.69;100433.02;107666;1282;22728;-73
2022/03/11 08:05:43;;;;;;;21.20;10.00;;;;;;;-2.76;44.85;100436.45;107740;1282;22541;-76
2022/03/11 08:08:10;;;;;;;17.70;8.30;;;;;;;-2.67;44.29;100439.84;107726;1282;22544;-73
2022/03/11 08:10:39;;;;;;;15.10;7.50;;;;;;;-2.65;44.51;100434.77;107697;1282;22613;-77
2022/03/11 08:13:07;;;;;;;19.40;9.10;;;;;;;-2.62;44.50;100435.00;107689;1282;22569;-73
2022/03/11 08:15:35;;;;;;;20.00;9.40;;;;;;;-2.54;44.73;100429.30;107741;1282;25331;-70
2022/03/11 08:18:03;;;;;;;22.40;9.50;;;;;;;-2.50;43.98;100433.48;107795;1282;22576;-74
2022/03/11 08:20:30;;;;;;;19.90;9.20;;;;;;;-2.44;43.77;100433.24;107667;1283;22646;-73
2022/03/11 08:22:57;;;;;;;21.90;10.00;;;;;;;-2.42;43.37;100425.25;107627;1282;23504;-78
2022/03/11 08:25:26;;;;;;;22.10;8.60;;;;;;;-2.43;43.55;100425.07;107729;1282;23002;-78
2022/03/11 08:27:55;;;;;;;22.50;10.20;;;;;;;-2.38;43.94;100426.83;107731;1282;22628;-73
2022/03/11 08:30:24;;;;;;;22.30;10.40;;;;;;;-2.30;43.78;100425.23;107707;1282;22642;-74
2022/03/11 08:32:53;;;;;;;28.00;12.80;;;;;;;-2.21;43.34;100429.32;107842;1282;22555;-73
2022/03/11 08:35:21;;;;;;;22.80;11.40;;;;;;;-2.15;42.84;100429.58;107689;1281;22565;-73
2022/03/11 08:37:48;;;;;;;25.90;12.70;;;;;;;-2.12;42.80;100432.17;107675;1282;22585;-74
2022/03/11 08:40:16;;;;;;;24.30;12.30;;;;;;;-2.04;43.05;100426.48;107686;1282;22615;-80
2022/03/11 08:42:44;;;;;;;17.90;8.60;;;;;;;-1.96;43.20;100427.28;107775;1281;24238;-77
2022/03/11 08:45:11;;;;;;;24.70;9.90;;;;;;;-1.87;43.08;100425.19;107655;1282;22666;-75
2022/03/11 08:47:39;;;;;;;18.80;9.20;;;;;;;-1.78;42.97;100425.13;107633;1282;22591;-73
2022/03/11 08:50:07;;;;;;;24.50;11.10;;;;;;;-1.66;42.76;100428.37;107636;1282;25448;-75
2022/03/11 08:52:36;;;;;;;20.30;10.10;;;;;;;-1.58;42.41;100420.59;107601;1282;22598;-80
2022/03/11 08:55:03;;;;;;;24.90;12.10;;;;;;;-1.50;42.66;100419.66;107650;1282;22564;-75
2022/03/11 08:57:31;;;;;;;28.30;13.30;;;;;;;-1.42;42.62;100419.58;107652;1282;24380;-73
2022/03/11 08:59:58;;;;;;;29.20;12.60;;;;;;;-1.34;42.90;100418.32;107664;1282;22555;-75
2022/03/11 09:02:25;;;;;;;34.30;15.40;;;;;;;-1.19;42.54;100417.10;107605;1282;22630;-75
2022/03/11 09:04:52;;;;;;;27.00;11.70;;;;;;;-1.10;41.96;100416.00;107692;1282;25325;-78
2022/03/11 09:07:19;;;;;;;26.20;11.90;;;;;;;-1.08;40.44;100416.53;107893;1282;23797;-74
2022/03/11 09:09:46;;;;;;;37.20;15.60;;;;;;;-1.09;40.69;100417.56;107950;1282;22635;-76
2022/03/11 09:12:13;;;;;;;23.50;11.40;;;;;;;-1.09;40.53;100412.77;107840;1282;22537;-75
2022/03/11 09:14:40;;;;;;;20.50;9.40;;;;;;;-1.06;40.90;100411.95;107907;1281;22635;-75
2022/03/11 09:17:07;;;;;;;20.60;9.50;;;;;;;-1.03;41.18;100404.45;107917;1282;22659;-77
2022/03/11 09:19:34;;;;;;;27.30;13.10;;;;;;;-0.97;41.45;100403.48;107933;1282;22545;-79
2022/03/11 09:22:01;;;;;;;22.50;11.00;;;;;;;-0.88;41.33;100406.98;107812;1282;22736;-73
2022/03/11 09:24:28;;;;;;;26.30;11.50;;;;;;;-0.80;41.33;100398.34;107914;1282;22573;-81
2022/03/11 09:26:55;;;;;;;21.70;10.00;;;;;;;-0.73;40.88;100398.56;107924;1282;22549;-76
2022/03/11 09:29:23;;;;;;;34.90;13.70;;;;;;;-0.68;40.38;100394.66;107909;1282;25530;-76
2022/03/11 09:31:50;;;;;;;21.20;9.80;;;;;;;-0.66;40.33;100397.94;107930;1282;22636;-73
2022/03/11 09:34:17;;;;;;;17.40;7.90;;;;;;;-0.59;40.24;100396.79;107909;1282;22553;-77
2022/03/11 09:36:44;;;;;;;14.50;7.70;;;;;;;-0.52;40.31;100394.79;107944;1282;22575;-77
2022/03/11 09:39:11;;;;;;;16.70;8.10;;;;;;;-0.44;39.88;100396.21;107953;1282;22547;-76
2022/03/11 09:41:40;;;;;;;20.00;8.40;;;;;;;-0.36;39.83;100391.14;107944;1282;22576;-74
2022/03/11 09:44:08;;;;;;;21.40;8.40;;;;;;;-0.32;39.48;100389.95;107943;1282;22578;-76
2022/03/11 09:46:35;;;;;;;16.90;7.70;;;;;;;-0.26;39.03;100393.42;107851;1282;22636;-75
2022/03/11 09:49:03;;;;;;;17.20;8.20;;;;;;;-0.21;38.21;100393.29;107927;1282;25344;-75
2022/03/11 09:51:36;;;;;;;22.90;8.40;;;;;;;-0.13;37.84;100391.98;107924;1282;22683;-74
2022/03/11 09:54:03;;;;;;;27.80;10.40;;;;;;;-0.11;37.67;100388.22;107918;1282;22743;-74
2022/03/11 09:56:34;;;;;;;23.10;10.60;;;;;;;-0.03;38.01;100387.06;107933;1282;22547;-74
2022/03/11 09:59:01;;;;;;;19.10;9.30;;;;;;;0.05;38.00;100387.96;107958;1282;22590;-74
2022/03/11 10:01:28;;;;;;;17.50;7.60;;;;;;;0.13;37.82;100383.71;107957;1282;22568;-81
2022/03/11 10:03:55;;;;;;;23.80;9.70;;;;;;;0.17;37.38;100381.34;107939;1282;22625;-88
2022/03/11 10:06:44;;;;;;;21.80;10.10;;;;;;;0.22;36.88;100377.75;107925;1282;22566;-74
2022/03/11 10:09:20;;;;;;;20.00;8.20;;;;;;;0.23;36.69;100379.14;107925;1282;22544;-86
2022/03/11 10:11:56;;;;;;;17.40;7.80;;;;;;;0.25;37.18;100375.21;107934;1282;22700;-75
2022/03/11 10:14:35;;;;;;;21.50;11.40;;;;;;;0.32;36.18;100379.35;107919;1282;22642;-74
2022/03/11 10:17:04;;;;;;;20.70;9.90;;;;;;;0.33;36.09;100378.66;107934;1282;22730;-75
2022/03/11 10:19:31;;;;;;;31.50;11.00;;;;;;;0.39;36.82;100373.37;107942;1282;22559;-76
2022/03/11 10:22:00;;;;;;;20.80;9.90;;;;;;;0.44;36.91;100376.98;107944;1282;22545;-84
2022/03/11 10:24:27;;;;;;;16.60;7.70;;;;;;;0.54;35.77;100380.10;107910;1282;22550;-79
2022/03/11 10:26:58;;;;;;;17.70;7.50;;;;;;;0.60;35.10;100381.32;107934;1282;22706;-74
2022/03/11 10:29:31;;;;;;;15.40;6.40;;;;;;;0.59;34.90;100378.40;107911;1282;22558;-77
2022/03/11 10:32:03;;;;;;;11.10;4.50;;;;;;;0.60;35.33;100372.41;107923;1282;22617;-74
2022/03/11 10:34:32;;;;;;;13.80;6.00;;;;;;;0.74;32.89;100368.83;107949;1282;25264;-83
2022/03/11 10:37:07;;;;;;;14.90;6.50;;;;;;;0.69;33.02;100373.46;107908;1282;22543;-77
2022/03/11 10:39:42;;;;;;;13.30;6.30;;;;;;;0.70;33.57;100369.35;107918;1282;22629;-74
2022/03/11 10:42:12;;;;;;;15.90;7.50;;;;;;;0.74;34.21;100371.23;107913;1281;22562;-78
2022/03/11 10:44:52;;;;;;;20.50;9.40;;;;;;;0.83;33.49;100373.82;107937;1281;22654;-75
2022/03/11 10:47:22;;;;;;;18.30;7.40;;;;;;;0.88;33.12;100369.04;107931;1282;22571;-77
2022/03/11 10:49:55;;;;;;;34.30;16.40;;;;;;;0.89;32.73;100365.77;107893;1282;22564;-72
2022/03/11 10:52:36;;;;;;;35.60;17.80;;;;;;;0.93;32.97;100361.14;107888;1282;22707;-72
2022/03/11 10:55:28;;;;;;;22.30;11.80;;;;;;;0.97;33.06;100354.13;107909;1282;22724;-81
2022/03/11 10:57:57;;;;;;;22.90;12.80;;;;;;;1.05;32.69;100347.77;107923;1281;22572;-78
2022/03/11 11:00:26;;;;;;;17.50;8.20;;;;;;;1.15;32.15;100352.59;107913;1280;22667;-74
2022/03/11 11:02:56;;;;;;;14.00;5.80;;;;;;;1.22;31.76;100352.93;107932;1282;22547;-77
2022/03/11 11:05:25;;;;;;;14.20;6.50;;;;;;;1.19;31.67;100346.91;107916;1282;25900;-80
2022/03/11 11:07:52;;;;;;;29.70;13.00;;;;;;;1.17;31.63;100343.65;107905;1281;22541;-82